createdAt,value
2018-12-02T00:01:27.621Z,100326.52
2018-12-02T00:04:01.403Z,100330.61
2018-12-02T00:06:33.925Z,100322.34
2018-12-02T00:09:06.209Z,100322.78
2018-12-02T00:11:38.456Z,100308.35
2018-12-02T00:14:09.842Z,100308.81
2018-12-02T00:16:42.154Z,100300.48
2018-12-02T00:19:14.234Z,100298.84
2018-12-02T00:21:45.661Z,100292.91
2018-12-02T00:24:17.987Z,100288.77
2018-12-02T00:26:49.837Z,100284.45
2018-12-02T00:29:22.466Z,100291.87
2018-12-02T00:31:54.166Z,100284.37
2018-12-02T00:34:25.775Z,100286.16
2018-12-02T00:36:57.104Z,100274.47
2018-12-02T00:39:28.466Z,100277.75
2018-12-02T00:42:00.380Z,100275.08
2018-12-02T00:44:31.702Z,100270.89
2018-12-02T00:47:03.464Z,100273.50
2018-12-02T00:49:35.214Z,100260.66
2018-12-02T00:52:06.547Z,100256.94
2018-12-02T00:54:38.240Z,100261.19
2018-12-02T00:57:10.582Z,100258.20
2018-12-02T00:59:42.065Z,100256.30
2018-12-02T01:02:13.459Z,100242.01
2018-12-02T01:04:44.657Z,100243.87
2018-12-02T01:07:16.111Z,100244.84
2018-12-02T01:09:47.458Z,100237.52
2018-12-02T01:12:19.630Z,100232.67
2018-12-02T01:14:51.605Z,100225.64
2018-12-02T01:17:23.195Z,100221.46
2018-12-02T01:19:54.844Z,100213.30
2018-12-02T01:22:27.640Z,100209.52
2018-12-02T01:24:59.655Z,100204.66
2018-12-02T01:27:30.959Z,100198.20
2018-12-02T01:30:02.390Z,100202.59
2018-12-02T01:32:33.992Z,100208.67
2018-12-02T01:35:05.480Z,100198.14
2018-12-02T01:37:37.005Z,100194.73
2018-12-02T01:40:10.364Z,100194.93
2018-12-02T01:42:41.793Z,100190.41
2018-12-02T01:45:25.805Z,100193.66
2018-12-02T01:47:57.889Z,100188.52
2018-12-02T01:50:29.261Z,100180.42
2018-12-02T01:53:01.054Z,100173.59
2018-12-02T01:55:32.870Z,100179.98
2018-12-02T01:58:04.184Z,100161.08
2018-12-02T02:00:35.544Z,100158.47
2018-12-02T02:03:07.022Z,100155.50
2018-12-02T02:05:40.068Z,100146.73
2018-12-02T02:08:12.800Z,100139.27
2018-12-02T02:10:44.682Z,100140.11
2018-12-02T02:13:16.049Z,100137.49
2018-12-02T02:15:47.711Z,100136.36
2018-12-02T02:18:19.628Z,100125.95
2018-12-02T02:20:50.980Z,100122.23
2018-12-02T02:23:22.958Z,100121.70
2018-12-02T02:25:55.233Z,100113.73
2018-12-02T02:28:26.836Z,100106.00
2018-12-02T02:30:58.455Z,100104.73
2018-12-02T02:33:29.834Z,100102.95
2018-12-02T02:36:02.214Z,100086.95
2018-12-02T02:38:33.814Z,100086.77
2018-12-02T02:41:05.197Z,100081.98
2018-12-02T02:43:37.127Z,100069.93
2018-12-02T02:46:09.222Z,100071.92
2018-12-02T02:48:40.686Z,100070.58
2018-12-02T02:51:11.876Z,100061.72
2018-12-02T02:53:43.952Z,100065.80
2018-12-02T02:56:16.259Z,100057.31
2018-12-02T02:58:48.427Z,100061.09
2018-12-02T03:01:20.101Z,100064.06
2018-12-02T03:03:53.134Z,100048.56
2018-12-02T03:06:25.070Z,100040.32
2018-12-02T03:08:57.010Z,100046.48
2018-12-02T03:11:28.950Z,100042.28
2018-12-02T03:14:00.327Z,100040.45
2018-12-02T03:16:32.052Z,100024.17
2018-12-02T03:19:04.110Z,100020.96
2018-12-02T03:21:36.325Z,100019.14
2018-12-02T03:24:08.976Z,100015.72
2018-12-02T03:26:40.621Z,100008.48
2018-12-02T03:29:12.176Z,100008.83
2018-12-02T03:31:43.546Z,99997.81
2018-12-02T03:34:14.907Z,99986.35
2018-12-02T03:36:46.297Z,99990.19
2018-12-02T03:39:18.792Z,99985.41
2018-12-02T03:41:50.233Z,99985.52
2018-12-02T03:44:21.660Z,99991.92
2018-12-02T03:46:54.943Z,99979.86
2018-12-02T03:49:26.902Z,99978.52
2018-12-02T03:51:59.050Z,99976.19
2018-12-02T03:54:30.979Z,99970.24
2018-12-02T03:57:02.287Z,99968.20
2018-12-02T03:59:33.593Z,99967.08
2018-12-02T04:02:05.042Z,99974.61
2018-12-02T04:04:36.362Z,99971.73
2018-12-02T04:07:07.948Z,99974.95
2018-12-02T04:09:39.680Z,99969.05
2018-12-02T04:12:11.993Z,99967.42
2018-12-02T04:14:43.332Z,99963.69
2018-12-02T04:17:15.470Z,99961.55
2018-12-02T04:19:48.092Z,99955.95
2018-12-02T04:22:19.688Z,99957.28
2018-12-02T04:24:53.295Z,99954.02
2018-12-02T04:27:24.917Z,99944.45
2018-12-02T04:29:56.293Z,99952.73
2018-12-02T04:32:27.952Z,99945.23
2018-12-02T04:34:59.706Z,99943.05
2018-12-02T04:37:32.083Z,99946.56
2018-12-02T04:40:03.529Z,99947.37
2018-12-02T04:42:35.768Z,99946.33
2018-12-02T04:45:09.261Z,99937.98
2018-12-02T04:47:40.886Z,99944.77
2018-12-02T04:50:24.961Z,99935.60
2018-12-02T04:52:56.585Z,99925.55
2018-12-02T04:55:28.025Z,99930.91
2018-12-02T04:57:59.795Z,99926.30
2018-12-02T05:00:33.010Z,99933.84
2018-12-02T05:03:04.645Z,99918.27
2018-12-02T05:05:35.965Z,99911.56
2018-12-02T05:08:08.433Z,99911.39
2018-12-02T05:10:39.792Z,99904.40
2018-12-02T05:13:11.865Z,99905.69
2018-12-02T05:15:43.207Z,99894.98
2018-12-02T05:18:15.262Z,99894.69
2018-12-02T05:20:46.680Z,99882.07
2018-12-02T05:23:18.367Z,99879.14
2018-12-02T05:25:49.662Z,99879.73
2018-12-02T05:28:21.017Z,99875.12
2018-12-02T05:30:53.056Z,99871.06
2018-12-02T05:33:25.059Z,99869.48
2018-12-02T05:35:56.785Z,99859.01
2018-12-02T05:38:28.364Z,99854.09
2018-12-02T05:41:00.311Z,99850.03
2018-12-02T05:43:31.972Z,99846.67
2018-12-02T05:46:03.399Z,99837.79
2018-12-02T05:48:35.038Z,99826.45
2018-12-02T05:51:07.154Z,99821.05
2018-12-02T05:53:39.256Z,99811.58
2018-12-02T05:56:10.601Z,99805.72
2018-12-02T05:58:42.534Z,99810.73
2018-12-02T06:01:13.920Z,99811.97
2018-12-02T06:03:45.263Z,99817.91
2018-12-02T06:06:17.095Z,99815.98
2018-12-02T06:08:49.171Z,99817.57
2018-12-02T06:11:20.611Z,99814.84
2018-12-02T06:13:51.935Z,99812.37
2018-12-02T06:16:23.518Z,99818.28
2018-12-02T06:18:54.892Z,99817.77
2018-12-02T06:21:27.406Z,99812.37
2018-12-02T06:23:59.081Z,99809.15
2018-12-02T06:26:30.749Z,99806.23
2018-12-02T06:29:02.446Z,99808.11
2018-12-02T06:31:34.567Z,99808.40
2018-12-02T06:34:07.843Z,99801.92
2018-12-02T06:36:39.136Z,99797.16
2018-12-02T06:39:11.809Z,99799.03
2018-12-02T06:41:43.155Z,99795.23
2018-12-02T06:44:14.791Z,99799.03
2018-12-02T06:46:46.127Z,99798.44
2018-12-02T06:49:17.827Z,99791.84
2018-12-02T06:51:49.302Z,99787.73
2018-12-02T06:54:21.381Z,99791.30
2018-12-02T06:57:03.904Z,99792.29
2018-12-02T07:00:00.799Z,99781.63
2018-12-02T07:02:58.599Z,99791.45
2018-12-02T07:05:39.217Z,99786.64
2018-12-02T07:08:10.847Z,99776.94
2018-12-02T07:10:42.847Z,99785.25
2018-12-02T07:13:14.495Z,99786.34
2018-12-02T07:15:45.794Z,99778.03
2018-12-02T07:18:23.495Z,99782.63
2018-12-02T07:20:58.489Z,99780.99
2018-12-02T07:23:31.797Z,99778.91
2018-12-02T07:26:10.274Z,99779.66
2018-12-02T07:28:42.025Z,99771.63
2018-12-02T07:31:13.442Z,99775.64
2018-12-02T07:33:45.977Z,99769.80
2018-12-02T07:36:24.261Z,99767.13
2018-12-02T07:39:35.680Z,99765.23
2018-12-02T07:42:08.623Z,99764.44
2018-12-02T07:44:41.420Z,99758.24
2018-12-02T07:47:13.090Z,99758.29
2018-12-02T07:49:45.134Z,99749.97
2018-12-02T07:52:16.908Z,99748.38
2018-12-02T07:54:49.022Z,99743.81
2018-12-02T07:57:21.175Z,99740.34
2018-12-02T07:59:53.316Z,99732.56
2018-12-02T08:02:25.304Z,99730.72
2018-12-02T08:04:56.680Z,99727.05
2018-12-02T08:07:27.996Z,99725.07
2018-12-02T08:10:01.343Z,99717.52
2018-12-02T08:12:32.767Z,99719.61
2018-12-02T08:15:04.997Z,99715.30
2018-12-02T08:17:36.734Z,99706.13
2018-12-02T08:20:13.277Z,99710.14
2018-12-02T08:22:45.121Z,99702.16
2018-12-02T08:25:18.196Z,99698.10
2018-12-02T08:27:49.796Z,99693.33
2018-12-02T08:30:25.910Z,99689.70
2018-12-02T08:32:58.138Z,99684.00
2018-12-02T08:35:31.350Z,99687.48
2018-12-02T08:38:04.762Z,99691.58
2018-12-02T08:40:36.960Z,99686.52
2018-12-02T08:43:09.431Z,99686.77
2018-12-02T08:45:41.229Z,99687.27
2018-12-02T08:48:14.318Z,99680.37
2018-12-02T08:50:45.589Z,99686.80
2018-12-02T08:53:16.947Z,99688.41
2018-12-02T08:55:49.378Z,99685.51
2018-12-02T08:58:21.184Z,99686.09
2018-12-02T09:00:52.790Z,99677.73
2018-12-02T09:03:24.550Z,99676.15
2018-12-02T09:05:56.002Z,99674.81
2018-12-02T09:08:28.221Z,99672.96
2018-12-02T09:11:00.560Z,99669.44
2018-12-02T09:13:32.069Z,99670.53
2018-12-02T09:16:03.469Z,99665.73
2018-12-02T09:18:35.246Z,99668.98
2018-12-02T09:21:07.561Z,99674.89
2018-12-02T09:23:39.899Z,99672.46
2018-12-02T09:26:12.419Z,99661.23
2018-12-02T09:28:43.888Z,99660.23
2018-12-02T09:31:15.377Z,99657.56
2018-12-02T09:33:53.816Z,99660.28
2018-12-02T09:36:27.612Z,99663.58
2018-12-02T09:38:59.642Z,99656.30
2018-12-02T09:41:33.632Z,99649.86
2018-12-02T09:44:11.280Z,99644.25
2018-12-02T09:49:19.907Z,99645.95
2018-12-02T09:51:51.241Z,99646.02
2018-12-02T09:54:23.486Z,99641.80
2018-12-02T09:56:55.776Z,99637.81
2018-12-02T09:59:27.808Z,99636.14
2018-12-02T10:01:59.468Z,99638.56
2018-12-02T10:04:31.997Z,99628.97
2018-12-02T10:07:04.451Z,99629.01
2018-12-02T10:09:36.580Z,99627.34
2018-12-02T10:12:08.117Z,99630.56
2018-12-02T10:14:39.782Z,99623.36
2018-12-02T10:17:11.087Z,99621.22
2018-12-02T10:19:42.321Z,99618.30
2018-12-02T10:22:13.536Z,99619.09
2018-12-02T10:24:44.961Z,99607.32
2018-12-02T10:27:16.265Z,99605.79
2018-12-02T10:29:47.785Z,99605.44
2018-12-02T10:32:19.925Z,99595.36
2018-12-02T10:34:52.109Z,99589.23
2018-12-02T10:37:24.081Z,99583.05
2018-12-02T10:39:57.340Z,99583.88
2018-12-02T10:42:28.683Z,99574.21
2018-12-02T10:45:01.075Z,99567.80
2018-12-02T10:47:39.458Z,99560.63
2018-12-02T10:50:43.602Z,99564.86
2018-12-02T10:53:20.695Z,99554.66
2018-12-02T10:55:58.307Z,99549.58
2018-12-02T10:58:35.808Z,99548.53
2018-12-02T11:01:18.320Z,99546.64
2018-12-02T11:03:49.952Z,99536.73
2018-12-02T11:06:21.734Z,99531.66
2018-12-02T11:08:53.132Z,99533.85
2018-12-02T11:11:24.955Z,99538.89
2018-12-02T11:13:56.356Z,99527.63
2018-12-02T11:16:27.755Z,99535.67
2018-12-02T11:18:59.757Z,99526.86
2018-12-02T11:21:31.529Z,99524.19
2018-12-02T11:24:02.876Z,99518.05
2018-12-02T11:26:34.658Z,99518.54
2018-12-02T11:29:06.541Z,99516.91
2018-12-02T11:31:38.216Z,99514.03
2018-12-02T11:34:09.734Z,99510.07
2018-12-02T11:36:41.312Z,99510.90
2018-12-02T11:39:13.523Z,99500.20
2018-12-02T11:41:45.991Z,99504.02
2018-12-02T11:44:17.646Z,99494.35
2018-12-02T11:46:49.796Z,99497.84
2018-12-02T11:49:21.133Z,99493.04
2018-12-02T11:51:53.501Z,99492.01
2018-12-02T11:54:24.891Z,99486.64
2018-12-02T11:56:56.195Z,99489.35
2018-12-02T11:59:27.728Z,99487.70
2018-12-02T12:01:59.853Z,99485.59
2018-12-02T12:04:31.716Z,99486.67
2018-12-02T12:07:03.294Z,99488.32
2018-12-02T12:09:35.006Z,99482.65
2018-12-02T12:12:06.522Z,99482.96
2018-12-02T12:14:37.867Z,99475.22
2018-12-02T12:17:10.043Z,99470.38
2018-12-02T12:19:42.051Z,99468.50
2018-12-02T12:22:13.445Z,99472.25
2018-12-02T12:24:45.642Z,99462.09
2018-12-02T12:27:17.275Z,99464.77
2018-12-02T12:29:48.704Z,99457.30
2018-12-02T12:32:20.054Z,99449.27
2018-12-02T12:34:51.583Z,99453.03
2018-12-02T12:37:23.466Z,99445.55
2018-12-02T12:39:55.072Z,99450.09
2018-12-02T12:42:26.750Z,99447.47
2018-12-02T12:44:58.710Z,99441.61
2018-12-02T12:47:30.522Z,99442.15
2018-12-02T12:50:02.150Z,99445.37
2018-12-02T12:52:33.551Z,99445.93
2018-12-02T12:55:04.899Z,99449.17
2018-12-02T12:57:37.026Z,99450.27
2018-12-02T13:00:14.721Z,99436.33
2018-12-02T13:02:46.689Z,99437.22
2018-12-02T13:05:25.146Z,99445.24
2018-12-02T13:07:56.785Z,99435.03
2018-12-02T13:10:28.532Z,99431.83
2018-12-02T13:13:00.437Z,99436.13
2018-12-02T13:15:32.150Z,99436.12
2018-12-02T13:18:04.573Z,99428.87
2018-12-02T13:20:40.475Z,99436.16
2018-12-02T13:23:12.243Z,99435.08
2018-12-02T13:25:44.022Z,99440.73
2018-12-02T13:28:15.551Z,99439.65
2018-12-02T13:30:46.988Z,99437.00
2018-12-02T13:33:19.017Z,99431.38
2018-12-02T13:35:50.959Z,99436.47
2018-12-02T13:38:24.598Z,99436.22
2018-12-02T13:40:56.148Z,99428.73
2018-12-02T13:43:35.836Z,99430.62
2018-12-02T13:46:11.743Z,99435.17
2018-12-02T13:49:02.246Z,99429.82
2018-12-02T13:51:33.812Z,99437.61
2018-12-02T13:54:26.727Z,99430.91
2018-12-02T13:56:58.442Z,99428.79
2018-12-02T13:59:30.269Z,99436.05
2018-12-02T14:02:01.634Z,99439.56
2018-12-02T14:04:34.524Z,99424.53
2018-12-02T14:07:05.836Z,99415.42
2018-12-02T14:09:37.207Z,99428.84
2018-12-02T14:12:08.682Z,99427.80
2018-12-02T14:14:42.607Z,99429.95
2018-12-02T14:17:19.497Z,99428.87
2018-12-02T14:19:51.580Z,99430.52
2018-12-02T14:22:23.969Z,99426.73
2018-12-02T14:24:55.511Z,99425.69
2018-12-02T14:27:27.767Z,99430.02
2018-12-02T14:29:59.347Z,99429.20
2018-12-02T14:32:31.765Z,99429.50
2018-12-02T14:35:03.386Z,99430.06
2018-12-02T14:37:35.304Z,99437.59
2018-12-02T14:40:11.753Z,99433.30
2018-12-02T14:42:44.364Z,99435.47
2018-12-02T14:45:17.079Z,99433.32
2018-12-02T14:47:48.898Z,99438.70
2018-12-02T14:50:20.571Z,99443.56
2018-12-02T14:52:52.578Z,99439.00
2018-12-02T14:55:24.138Z,99443.58
2018-12-02T14:57:55.480Z,99441.45
2018-12-02T15:00:27.134Z,99442.01
2018-12-02T15:02:58.535Z,99439.56
2018-12-02T15:05:30.181Z,99439.05
2018-12-02T15:08:01.855Z,99438.78
2018-12-02T15:10:33.690Z,99441.74
2018-12-02T15:13:05.336Z,99442.27
2018-12-02T15:15:36.828Z,99446.85
2018-12-02T15:18:09.010Z,99442.03
2018-12-02T15:20:40.637Z,99448.75
2018-12-02T15:23:12.631Z,99448.20
2018-12-02T15:25:44.065Z,99451.97
2018-12-02T15:28:15.807Z,99454.95
2018-12-02T15:30:47.547Z,99456.02
2018-12-02T15:33:18.886Z,99462.20
2018-12-02T15:35:50.545Z,99468.92
2018-12-02T15:38:21.865Z,99464.09
2018-12-02T15:40:53.472Z,99459.80
2018-12-02T15:43:24.878Z,99460.63
2018-12-02T15:45:56.756Z,99465.45
2018-12-02T15:48:29.009Z,99466.80
2018-12-02T15:51:00.232Z,99461.70
2018-12-02T15:53:31.951Z,99467.60
2018-12-02T15:56:03.708Z,99468.16
2018-12-02T15:58:35.154Z,99473.80
2018-12-02T16:01:06.479Z,99478.91
2018-12-02T16:03:38.530Z,99478.64
2018-12-02T16:06:09.893Z,99484.03
2018-12-02T16:08:41.331Z,99486.44
2018-12-02T16:11:12.666Z,99484.03
2018-12-02T16:13:43.971Z,99483.75
2018-12-02T16:16:15.446Z,99487.52
2018-12-02T16:18:46.858Z,99484.31
2018-12-02T16:21:18.213Z,99488.63
2018-12-02T16:23:49.637Z,99491.56
2018-12-02T16:26:21.291Z,99503.66
2018-12-02T16:28:53.180Z,99500.45
2018-12-02T16:31:24.989Z,99500.98
2018-12-02T16:33:56.692Z,99506.09
2018-12-02T16:36:28.322Z,99508.78
2018-12-02T16:39:00.298Z,99508.27
2018-12-02T16:41:34.298Z,99508.27
2018-12-02T16:44:06.108Z,99512.58
2018-12-02T16:49:27.189Z,99515.28
2018-12-02T16:51:59.055Z,99519.05
2018-12-02T16:54:30.426Z,99524.95
2018-12-02T16:57:03.279Z,99520.39
2018-12-02T16:59:35.660Z,99528.98
2018-12-02T17:02:09.432Z,99534.92
2018-12-02T17:04:41.053Z,99532.23
2018-12-02T17:07:13.458Z,99535.19
2018-12-02T17:09:45.789Z,99539.75
2018-12-02T17:12:17.613Z,99542.17
2018-12-02T17:14:49.591Z,99536.78
2018-12-02T17:17:21.614Z,99539.48
2018-12-02T17:19:53.689Z,99547.03
2018-12-02T17:22:25.730Z,99547.31
2018-12-02T17:24:58.688Z,99542.20
2018-12-02T17:27:30.551Z,99548.92
2018-12-02T17:30:02.833Z,99546.75
2018-12-02T17:32:34.300Z,99552.14
2018-12-02T17:35:06.092Z,99551.06
2018-12-02T17:37:38.294Z,99552.94
2018-12-02T17:40:24.054Z,99553.48
2018-12-02T17:42:55.376Z,99555.62
2018-12-02T17:45:27.493Z,99557.52
2018-12-02T17:47:58.843Z,99561.56
2018-12-02T17:50:30.149Z,99561.56
2018-12-02T17:53:02.572Z,99558.87
2018-12-02T17:55:35.147Z,99562.91
2018-12-02T17:58:06.937Z,99556.45
2018-12-02T18:00:39.689Z,99564.25
2018-12-02T18:03:12.817Z,99563.18
2018-12-02T18:05:47.512Z,99568.56
2018-12-02T18:08:19.626Z,99572.33
2018-12-02T18:10:52.129Z,99566.66
2018-12-02T18:13:25.010Z,99576.91
2018-12-02T18:15:56.390Z,99573.95
2018-12-02T18:18:28.656Z,99569.36
2018-12-02T18:21:00.591Z,99580.13
2018-12-02T18:23:33.749Z,99574.75
2018-12-02T18:26:05.599Z,99582.55
2018-12-02T18:28:38.629Z,99588.20
2018-12-02T18:31:10.016Z,99590.89
2018-12-02T18:33:43.552Z,99589.27
2018-12-02T18:36:20.095Z,99585.52
2018-12-02T18:38:52.706Z,99586.33
2018-12-02T18:41:26.063Z,99585.51
2018-12-02T18:43:58.626Z,99587.14
2018-12-02T18:46:30.668Z,99586.06
2018-12-02T18:49:02.052Z,99598.45
2018-12-02T18:51:38.152Z,99592.80
2018-12-02T18:54:11.633Z,99591.97
2018-12-02T18:56:45.184Z,99592.52
2018-12-02T18:59:16.984Z,99597.90
2018-12-02T19:01:48.545Z,99601.15
2018-12-02T19:04:20.328Z,99598.98
2018-12-02T19:06:58.379Z,99601.14
2018-12-02T19:09:27.379Z,99602.22
2018-12-02T19:11:59.727Z,99602.73
2018-12-02T19:14:31.504Z,99607.88
2018-12-02T19:17:04.444Z,99604.63
2018-12-02T19:19:36.035Z,99607.31
2018-12-02T19:22:08.748Z,99603.01
2018-12-02T19:24:40.854Z,99601.14
2018-12-02T19:27:13.019Z,99605.43
2018-12-02T19:29:45.653Z,99603.56
2018-12-02T19:32:18.241Z,99610.30
2018-12-02T19:34:49.944Z,99612.71
2018-12-02T19:37:22.128Z,99610.30
2018-12-02T19:39:54.466Z,99616.20
2018-12-02T19:45:01.779Z,99615.68
2018-12-02T19:47:33.267Z,99621.34
2018-12-02T19:50:05.343Z,99617.30
2018-12-02T19:52:37.279Z,99617.81
2018-12-02T19:55:10.972Z,99618.36
2018-12-02T19:57:44.998Z,99621.85
2018-12-02T20:00:27.596Z,99609.73
2018-12-02T20:02:59.791Z,99611.36
2018-12-02T20:05:31.266Z,99610.83
2018-12-02T20:08:03.636Z,99620.23
2018-12-02T20:10:35.826Z,99613.23
2018-12-02T20:13:14.665Z,99623.45
2018-12-02T20:16:03.768Z,99624.52
2018-12-02T20:18:36.166Z,99621.58
2018-12-02T20:21:07.995Z,99627.48
2018-12-02T20:23:57.661Z,99634.76
2018-12-02T20:26:30.087Z,99632.86
2018-12-02T20:29:01.517Z,99640.14
2018-12-02T20:31:32.999Z,99637.45
2018-12-02T20:34:05.041Z,99635.28
2018-12-02T20:36:37.341Z,99635.28
2018-12-02T20:39:11.661Z,99637.73
2018-12-02T20:41:44.043Z,99633.14
2018-12-02T20:44:16.433Z,99634.48
2018-12-02T20:46:48.654Z,99632.34
2018-12-02T20:49:21.176Z,99634.48
2018-12-02T20:51:52.678Z,99627.75
2018-12-02T20:54:24.545Z,99628.03
2018-12-02T20:56:56.879Z,99629.64
2018-12-02T20:59:29.021Z,99621.02
2018-12-02T21:02:00.375Z,99629.09
2018-12-02T21:04:32.805Z,99631.23
2018-12-02T21:07:04.732Z,99637.95
2018-12-02T21:09:36.569Z,99630.98
2018-12-02T21:12:08.483Z,99635.28
2018-12-02T21:14:40.856Z,99634.48
2018-12-02T21:17:12.956Z,99635.03
2018-12-02T21:19:44.994Z,99634.20
2018-12-02T21:22:16.783Z,99634.48
2018-12-02T21:24:48.323Z,99639.31
2018-12-02T21:27:20.515Z,99638.52
2018-12-02T21:29:55.958Z,99636.90
2018-12-02T21:32:27.944Z,99636.62
2018-12-02T21:35:00.140Z,99637.72
2018-12-02T21:37:32.673Z,99644.98
2018-12-02T21:40:06.456Z,99637.97
2018-12-02T21:42:38.627Z,99636.89
2018-12-02T21:45:10.996Z,99644.97
2018-12-02T21:47:58.392Z,99643.89
2018-12-02T21:50:33.767Z,99646.31
2018-12-02T21:53:05.721Z,99646.31
2018-12-02T21:55:37.415Z,99641.75
2018-12-02T21:58:09.933Z,99633.39
2018-12-02T22:00:59.129Z,99642.53
2018-12-02T22:03:30.932Z,99640.91
2018-12-02T22:06:02.713Z,99639.56
2018-12-02T22:08:35.173Z,99636.08
2018-12-02T22:11:06.669Z,99632.32
2018-12-02T22:13:43.340Z,99630.97
2018-12-02T22:16:11.251Z,99630.97
2018-12-02T22:18:43.274Z,99629.88
2018-12-02T22:21:15.303Z,99635.80
2018-12-02T22:23:48.018Z,99629.34
2018-12-02T22:26:19.381Z,99639.28
2018-12-02T22:28:51.085Z,99645.48
2018-12-02T22:31:23.544Z,99631.76
2018-12-02T22:33:55.681Z,99633.92
2018-12-02T22:36:27.659Z,99630.67
2018-12-02T22:38:59.861Z,99635.77
2018-12-02T22:41:31.594Z,99631.73
2018-12-02T22:44:03.076Z,99625.00
2018-12-02T22:46:35.671Z,99627.66
2018-12-02T22:49:07.940Z,99623.89
2018-12-02T22:51:39.575Z,99635.19
2018-12-02T22:54:12.221Z,99635.70
2018-12-02T22:56:45.156Z,99637.31
2018-12-02T22:59:16.867Z,99641.38
2018-12-02T23:02:05.042Z,99634.92
2018-12-02T23:04:36.510Z,99638.97
2018-12-02T23:07:08.242Z,99633.58
2018-12-02T23:09:41.544Z,99626.87
2018-12-02T23:12:13.254Z,99633.88
2018-12-02T23:14:45.646Z,99634.67
2018-12-02T23:17:22.165Z,99633.05
2018-12-02T23:19:54.520Z,99629.29
2018-12-02T23:22:27.128Z,99628.20
2018-12-02T23:24:59.126Z,99626.60
2018-12-02T23:27:30.871Z,99629.02
2018-12-02T23:30:02.232Z,99634.13
2018-12-02T23:32:34.420Z,99637.94
2018-12-02T23:35:07.634Z,99636.59
2018-12-02T23:37:39.511Z,99634.70
2018-12-02T23:40:36.474Z,99632.55
2018-12-02T23:43:08.524Z,99638.19
2018-12-02T23:45:39.996Z,99634.70
2018-12-02T23:48:11.648Z,99633.91
2018-12-02T23:50:43.671Z,99637.40
2018-12-02T23:53:16.514Z,99637.12
2018-12-02T23:55:47.915Z,99643.86
2018-12-02T23:58:19.946Z,99632.30
